sensor_id;sensor_type;location;lat;lon;timestamp;pressure;altitude;pressure_sealevel;temperature;humidity
59829;BME280;45708;51.848;107.620;2022-12-29T00:00:34;95783.50;;;-26.56;67.66
59829;BME280;45708;51.848;107.620;2022-12-29T00:05:35;95779.19;;;-26.73;67.26
59829;BME280;45708;51.848;107.620;2022-12-29T00:10:36;95772.72;;;-26.58;67.40
59829;BME280;45708;51.848;107.620;2022-12-29T00:15:37;95779.56;;;-26.38;67.54
59829;BME280;45708;51.848;107.620;2022-12-29T00:20:38;95781.06;;;-26.51;67.67
59829;BME280;45708;51.848;107.620;2022-12-29T00:25:39;95766.59;;;-26.87;67.30
59829;BME280;45708;51.848;107.620;2022-12-29T00:30:40;95774.88;;;-26.87;67.28
59829;BME280;45708;51.848;107.620;2022-12-29T00:35:52;95777.00;;;-27.20;66.97
59829;BME280;45708;51.848;107.620;2022-12-29T00:46:14;95778.69;;;-27.18;67.51
59829;BME280;45708;51.848;107.620;2022-12-29T00:51:14;95766.84;;;-27.35;67.78
59829;BME280;45708;51.848;107.620;2022-12-29T00:56:15;95782.56;;;-27.38;67.43
59829;BME280;45708;51.848;107.620;2022-12-29T01:01:16;95775.81;;;-27.45;67.80
59829;BME280;45708;51.848;107.620;2022-12-29T01:06:17;95779.28;;;-27.34;67.45
59829;BME280;45708;51.848;107.620;2022-12-29T01:11:18;95780.09;;;-27.35;67.65
59829;BME280;45708;51.848;107.620;2022-12-29T01:16:19;95776.03;;;-27.30;67.41
59829;BME280;45708;51.848;107.620;2022-12-29T01:21:20;95777.13;;;-27.09;68.09
59829;BME280;45708;51.848;107.620;2022-12-29T01:26:39;95761.28;;;-27.18;67.42
59829;BME280;45708;51.848;107.620;2022-12-29T01:31:40;95763.00;;;-27.13;67.67
59829;BME280;45708;51.848;107.620;2022-12-29T01:36:41;95762.16;;;-27.15;67.69
59829;BME280;45708;51.848;107.620;2022-12-29T01:47:26;95756.38;;;-27.11;68.30
59829;BME280;45708;51.848;107.620;2022-12-29T01:52:32;95760.06;;;-26.79;68.36
59829;BME280;45708;51.848;107.620;2022-12-29T01:57:37;95764.44;;;-26.57;68.06
59829;BME280;45708;51.848;107.620;2022-12-29T02:02:50;95750.59;;;-26.24;68.16
59829;BME280;45708;51.848;107.620;2022-12-29T02:07:53;95755.75;;;-26.06;67.95
59829;BME280;45708;51.848;107.620;2022-12-29T02:12:54;95757.56;;;-25.83;67.83
59829;BME280;45708;51.848;107.620;2022-12-29T02:23:44;95766.69;;;-25.87;67.16
59829;BME280;45708;51.848;107.620;2022-12-29T02:39:42;95749.72;;;-26.37;66.33
59829;BME280;45708;51.848;107.620;2022-12-29T02:45:08;95730.88;;;-26.03;67.18
59829;BME280;45708;51.848;107.620;2022-12-29T02:55:32;95736.00;;;-25.84;66.95
59829;BME280;45708;51.848;107.620;2022-12-29T03:00:36;95731.78;;;-25.96;66.39
59829;BME280;45708;51.848;107.620;2022-12-29T03:16:01;95709.81;;;-25.15;67.37
59829;BME280;45708;51.848;107.620;2022-12-29T03:21:24;95711.53;;;-24.99;67.24
59829;BME280;45708;51.848;107.620;2022-12-29T03:26:26;95708.16;;;-25.04;66.11
59829;BME280;45708;51.848;107.620;2022-12-29T03:31:28;95695.72;;;-24.98;66.69
59829;BME280;45708;51.848;107.620;2022-12-29T03:36:40;95699.94;;;-24.79;66.37
59829;BME280;45708;51.848;107.620;2022-12-29T03:41:44;95681.63;;;-24.99;66.04
59829;BME280;45708;51.848;107.620;2022-12-29T03:52:05;95668.38;;;-24.55;66.95
59829;BME280;45708;51.848;107.620;2022-12-29T04:28:10;95563.41;;;-23.73;66.65
59829;BME280;45708;51.848;107.620;2022-12-29T04:33:11;95603.91;;;-23.07;66.06
59829;BME280;45708;51.848;107.620;2022-12-29T04:38:12;95587.78;;;-22.66;66.54
59829;BME280;45708;51.848;107.620;2022-12-29T04:43:13;95587.38;;;-22.11;66.40
59829;BME280;45708;51.848;107.620;2022-12-29T04:48:15;95578.97;;;-22.07;64.89
59829;BME280;45708;51.848;107.620;2022-12-29T04:53:17;95582.22;;;-21.99;64.71
59829;BME280;45708;51.848;107.620;2022-12-29T04:58:19;95572.13;;;-21.93;64.57
59829;BME280;45708;51.848;107.620;2022-12-29T05:03:38;95577.66;;;-21.61;65.34
59829;BME280;45708;51.848;107.620;2022-12-29T05:08:39;95587.19;;;-21.19;65.01
59829;BME280;45708;51.848;107.620;2022-12-29T05:13:40;95574.53;;;-21.12;64.63
59829;BME280;45708;51.848;107.620;2022-12-29T05:18:59;95571.63;;;-20.80;64.77
59829;BME280;45708;51.848;107.620;2022-12-29T05:24:19;95553.59;;;-20.51;65.04
59829;BME280;45708;51.848;107.620;2022-12-29T05:29:19;95537.47;;;-20.38;64.31
59829;BME280;45708;51.848;107.620;2022-12-29T05:34:20;95541.16;;;-20.09;64.06
59829;BME280;45708;51.848;107.620;2022-12-29T05:39:21;95533.53;;;-20.05;64.42
59829;BME280;45708;51.848;107.620;2022-12-29T05:44:22;95540.13;;;-19.97;64.18
59829;BME280;45708;51.848;107.620;2022-12-29T05:49:23;95527.53;;;-19.96;64.52
59829;BME280;45708;51.848;107.620;2022-12-29T05:54:23;95530.34;;;-19.66;64.64
59829;BME280;45708;51.848;107.620;2022-12-29T05:59:24;95511.81;;;-19.62;63.69
59829;BME280;45708;51.848;107.620;2022-12-29T06:04:25;95519.75;;;-19.42;64.32
59829;BME280;45708;51.848;107.620;2022-12-29T06:09:26;95509.69;;;-19.42;63.44
59829;BME280;45708;51.848;107.620;2022-12-29T06:14:27;95495.56;;;-19.48;63.38
59829;BME280;45708;51.848;107.620;2022-12-29T06:19:27;95492.63;;;-19.28;63.06
59829;BME280;45708;51.848;107.620;2022-12-29T06:24:28;95492.13;;;-19.03;62.73
59829;BME280;45708;51.848;107.620;2022-12-29T06:29:29;95478.66;;;-19.02;63.58
59829;BME280;45708;51.848;107.620;2022-12-29T06:34:30;95479.72;;;-18.74;62.28
59829;BME280;45708;51.848;107.620;2022-12-29T06:39:31;95474.59;;;-18.71;62.40
59829;BME280;45708;51.848;107.620;2022-12-29T06:44:32;95483.59;;;-18.96;62.05
59829;BME280;45708;51.848;107.620;2022-12-29T06:49:32;95475.97;;;-18.93;63.05
59829;BME280;45708;51.848;107.620;2022-12-29T06:54:33;95477.50;;;-18.88;62.84
59829;BME280;45708;51.848;107.620;2022-12-29T06:59:34;95464.13;;;-18.90;61.67
59829;BME280;45708;51.848;107.620;2022-12-29T07:04:35;95457.50;;;-18.94;62.20
59829;BME280;45708;51.848;107.620;2022-12-29T07:09:36;95478.47;;;-18.93;61.75
59829;BME280;45708;51.848;107.620;2022-12-29T07:14:37;95468.41;;;-18.93;62.72
59829;BME280;45708;51.848;107.620;2022-12-29T07:19:37;95424.28;;;-19.48;62.14
59829;BME280;45708;51.848;107.620;2022-12-29T07:24:38;95462.50;;;-19.31;62.03
59829;BME280;45708;51.848;107.620;2022-12-29T07:29:39;95457.41;;;-19.28;62.55
59829;BME280;45708;51.848;107.620;2022-12-29T07:34:40;95465.69;;;-19.21;62.74
59829;BME280;45708;51.848;107.620;2022-12-29T07:39:41;95476.09;;;-19.38;61.69
59829;BME280;45708;51.848;107.620;2022-12-29T07:44:42;95466.25;;;-19.50;62.59
59829;BME280;45708;51.848;107.620;2022-12-29T07:49:43;95460.09;;;-19.76;61.69
59829;BME280;45708;51.848;107.620;2022-12-29T07:54:44;95484.53;;;-19.82;62.50
59829;BME280;45708;51.848;107.620;2022-12-29T07:59:44;95493.75;;;-19.83;62.45
59829;BME280;45708;51.848;107.620;2022-12-29T08:10:05;95492.69;;;-20.16;62.38
59829;BME280;45708;51.848;107.620;2022-12-29T08:15:08;95497.91;;;-20.26;62.41
59829;BME280;45708;51.848;107.620;2022-12-29T08:20:09;95495.34;;;-20.25;62.54
59829;BME280;45708;51.848;107.620;2022-12-29T08:25:10;95494.69;;;-20.35;62.34
59829;BME280;45708;51.848;107.620;2022-12-29T08:30:11;95486.69;;;-20.55;62.92
59829;BME280;45708;51.848;107.620;2022-12-29T08:35:12;95493.50;;;-20.63;62.73
59829;BME280;45708;51.848;107.620;2022-12-29T08:40:13;95485.38;;;-20.77;62.78
59829;BME280;45708;51.848;107.620;2022-12-29T08:45:14;95490.56;;;-20.89;62.82
59829;BME280;45708;51.848;107.620;2022-12-29T08:50:34;95491.63;;;-21.04;62.64
59829;BME280;45708;51.848;107.620;2022-12-29T08:55:35;95495.09;;;-21.13;62.91
59829;BME280;45708;51.848;107.620;2022-12-29T09:00:35;95492.69;;;-21.22;62.98
59829;BME280;45708;51.848;107.620;2022-12-29T09:05:36;95498.56;;;-21.21;62.96
59829;BME280;45708;51.848;107.620;2022-12-29T09:10:37;95496.06;;;-21.23;63.02
59829;BME280;45708;51.848;107.620;2022-12-29T09:15:38;95502.13;;;-21.35;63.25
59829;BME280;45708;51.848;107.620;2022-12-29T09:20:39;95497.13;;;-21.36;63.23
59829;BME280;45708;51.848;107.620;2022-12-29T09:25:40;95511.28;;;-21.34;63.53
59829;BME280;45708;51.848;107.620;2022-12-29T09:30:41;95509.72;;;-21.42;63.25
59829;BME280;45708;51.848;107.620;2022-12-29T09:35:53;95501.50;;;-21.53;63.56
59829;BME280;45708;51.848;107.620;2022-12-29T09:41:01;95497.25;;;-21.47;63.57
59829;BME280;45708;51.848;107.620;2022-12-29T09:51:12;95498.03;;;-21.43;63.90
59829;BME280;45708;51.848;107.620;2022-12-29T09:56:20;95504.78;;;-21.48;63.54
59829;BME280;45708;51.848;107.620;2022-12-29T10:07:09;95499.75;;;-21.47;64.00
59829;BME280;45708;51.848;107.620;2022-12-29T10:27:51;95496.50;;;-21.53;64.03
59829;BME280;45708;51.848;107.620;2022-12-29T10:56:43;95502.56;;;-21.10;66.31
59829;BME280;45708;51.848;107.620;2022-12-29T11:07:12;95499.53;;;-21.30;65.40
59829;BME280;45708;51.848;107.620;2022-12-29T11:17:22;95496.38;;;-21.44;64.58
59829;BME280;45708;51.848;107.620;2022-12-29T11:22:27;95497.25;;;-21.48;64.60
59829;BME280;45708;51.848;107.620;2022-12-29T11:27:28;95489.03;;;-21.58;64.49
59829;BME280;45708;51.848;107.620;2022-12-29T11:32:29;95504.97;;;-21.61;64.39
59829;BME280;45708;51.848;107.620;2022-12-29T11:37:36;95495.78;;;-21.63;64.35
59829;BME280;45708;51.848;107.620;2022-12-29T11:42:46;95505.78;;;-21.63;64.47
59829;BME280;45708;51.848;107.620;2022-12-29T11:48:01;95509.13;;;-21.60;64.83
59829;BME280;45708;51.848;107.620;2022-12-29T11:53:45;95511.63;;;-21.60;64.14
59829;BME280;45708;51.848;107.620;2022-12-29T11:58:46;95501.63;;;-21.63;64.53
59829;BME280;45708;51.848;107.620;2022-12-29T12:09:19;95515.81;;;-21.63;64.63
59829;BME280;45708;51.848;107.620;2022-12-29T12:14:41;95494.97;;;-21.67;64.65
59829;BME280;45708;51.848;107.620;2022-12-29T12:19:59;95520.00;;;-21.64;64.95
59829;BME280;45708;51.848;107.620;2022-12-29T12:25:11;95518.31;;;-21.60;64.64
59829;BME280;45708;51.848;107.620;2022-12-29T12:30:25;95518.31;;;-21.59;64.84
59829;BME280;45708;51.848;107.620;2022-12-29T12:46:07;95516.56;;;-21.53;64.66
59829;BME280;45708;51.848;107.620;2022-12-29T12:51:20;95511.63;;;-21.60;64.75
59829;BME280;45708;51.848;107.620;2022-12-29T13:24:15;95500.25;;;-21.88;65.50
59829;BME280;45708;51.848;107.620;2022-12-29T13:29:55;95500.16;;;-21.82;65.61
59829;BME280;45708;51.848;107.620;2022-12-29T13:40:21;95493.50;;;-21.83;65.34
59829;BME280;45708;51.848;107.620;2022-12-29T13:45:24;95488.50;;;-21.84;65.77
59829;BME280;45708;51.848;107.620;2022-12-29T13:50:33;95490.19;;;-21.85;65.50
59829;BME280;45708;51.848;107.620;2022-12-29T13:55:41;95486.91;;;-21.90;65.52
59829;BME280;45708;51.848;107.620;2022-12-29T14:00:54;95485.22;;;-21.88;65.82
59829;BME280;45708;51.848;107.620;2022-12-29T14:06:29;95486.81;;;-21.84;65.80
59829;BME280;45708;51.848;107.620;2022-12-29T14:11:39;95491.91;;;-21.90;65.89
59829;BME280;45708;51.848;107.620;2022-12-29T14:16:40;95487.69;;;-21.87;66.00
59829;BME280;45708;51.848;107.620;2022-12-29T14:21:51;95501.84;;;-21.81;65.31
59829;BME280;45708;51.848;107.620;2022-12-29T14:26:53;95491.09;;;-21.91;65.75
59829;BME280;45708;51.848;107.620;2022-12-29T14:31:54;95492.84;;;-21.99;65.91
59829;BME280;45708;51.848;107.620;2022-12-29T14:37:02;95496.22;;;-22.01;65.49
59829;BME280;45708;51.848;107.620;2022-12-29T14:47:19;95497.97;;;-22.08;66.22
59829;BME280;45708;51.848;107.620;2022-12-29T14:52:21;95518.84;;;-22.06;66.01
59829;BME280;45708;51.848;107.620;2022-12-29T14:57:44;95497.19;;;-22.11;65.53
59829;BME280;45708;51.848;107.620;2022-12-29T15:02:54;95518.13;;;-22.15;65.64
59829;BME280;45708;51.848;107.620;2022-12-29T15:08:03;95512.28;;;-22.17;66.00
59829;BME280;45708;51.848;107.620;2022-12-29T15:13:15;95504.72;;;-22.13;65.92
59829;BME280;45708;51.848;107.620;2022-12-29T15:23:24;95516.25;;;-21.98;66.20
59829;BME280;45708;51.848;107.620;2022-12-29T15:28:27;95512.03;;;-21.96;65.92
59829;BME280;45708;51.848;107.620;2022-12-29T15:33:29;95511.97;;;-21.90;65.75
59829;BME280;45708;51.848;107.620;2022-12-29T15:38:30;95525.22;;;-21.79;65.58
59829;BME280;45708;51.848;107.620;2022-12-29T15:48:50;95518.34;;;-21.65;65.80
59829;BME280;45708;51.848;107.620;2022-12-29T15:53:51;95509.16;;;-21.61;65.90
59829;BME280;45708;51.848;107.620;2022-12-29T15:58:53;95511.50;;;-21.50;65.81
59829;BME280;45708;51.848;107.620;2022-12-29T16:03:54;95515.66;;;-21.49;65.94
59829;BME280;45708;51.848;107.620;2022-12-29T16:09:18;95510.59;;;-21.45;66.01
59829;BME280;45708;51.848;107.620;2022-12-29T16:14:28;95511.31;;;-21.35;65.85
59829;BME280;45708;51.848;107.620;2022-12-29T16:19:39;95505.56;;;-21.45;65.88
59829;BME280;45708;51.848;107.620;2022-12-29T16:24:41;95499.91;;;-21.58;65.81
59829;BME280;45708;51.848;107.620;2022-12-29T16:29:42;95504.00;;;-21.52;65.54
59829;BME280;45708;51.848;107.620;2022-12-29T16:34:43;95509.06;;;-21.55;65.60
59829;BME280;45708;51.848;107.620;2022-12-29T16:39:44;95503.88;;;-21.43;65.94
59829;BME280;45708;51.848;107.620;2022-12-29T16:44:45;95502.56;;;-21.08;65.90
59829;BME280;45708;51.848;107.620;2022-12-29T16:49:51;95493.84;;;-20.84;65.84
59829;BME280;45708;51.848;107.620;2022-12-29T16:54:56;95481.06;;;-20.69;65.45
59829;BME280;45708;51.848;107.620;2022-12-29T17:00:04;95488.91;;;-20.90;65.10
59829;BME280;45708;51.848;107.620;2022-12-29T17:05:07;95502.31;;;-21.51;64.52
59829;BME280;45708;51.848;107.620;2022-12-29T17:10:12;95499.56;;;-21.99;64.81
59829;BME280;45708;51.848;107.620;2022-12-29T17:15:27;95495.50;;;-22.09;65.63
59829;BME280;45708;51.848;107.620;2022-12-29T17:20:30;95488.94;;;-22.23;65.43
59829;BME280;45708;51.848;107.620;2022-12-29T17:25:35;95483.91;;;-22.18;65.96
59829;BME280;45708;51.848;107.620;2022-12-29T17:30:37;95483.09;;;-22.20;65.71
59829;BME280;45708;51.848;107.620;2022-12-29T17:35:39;95495.63;;;-22.22;65.93
59829;BME280;45708;51.848;107.620;2022-12-29T17:40:40;95499.84;;;-22.27;65.53
59829;BME280;45708;51.848;107.620;2022-12-29T17:45:43;95503.00;;;-22.08;65.97
59829;BME280;45708;51.848;107.620;2022-12-29T17:50:45;95490.25;;;-21.91;65.50
59829;BME280;45708;51.848;107.620;2022-12-29T17:55:47;95498.41;;;-21.74;65.45
59829;BME280;45708;51.848;107.620;2022-12-29T18:00:50;95504.13;;;-21.61;65.25
59829;BME280;45708;51.848;107.620;2022-12-29T18:05:53;95509.94;;;-21.58;65.35
59829;BME280;45708;51.848;107.620;2022-12-29T18:10:54;95501.50;;;-21.53;65.46
59829;BME280;45708;51.848;107.620;2022-12-29T18:15:56;95494.84;;;-21.54;65.43
59829;BME280;45708;51.848;107.620;2022-12-29T18:20:58;95500.53;;;-21.43;65.55
59829;BME280;45708;51.848;107.620;2022-12-29T18:26:03;95492.13;;;-21.38;65.70
59829;BME280;45708;51.848;107.620;2022-12-29T18:31:15;95510.22;;;-21.17;65.17
59829;BME280;45708;51.848;107.620;2022-12-29T18:36:17;95517.59;;;-21.07;65.11
59829;BME280;45708;51.848;107.620;2022-12-29T18:41:20;95517.63;;;-21.10;65.15
59829;BME280;45708;51.848;107.620;2022-12-29T18:46:23;95519.34;;;-21.12;65.57
59829;BME280;45708;51.848;107.620;2022-12-29T18:51:24;95519.44;;;-21.19;65.18
59829;BME280;45708;51.848;107.620;2022-12-29T18:56:25;95532.97;;;-21.28;65.21
59829;BME280;45708;51.848;107.620;2022-12-29T19:01:26;95525.41;;;-21.27;65.81
59829;BME280;45708;51.848;107.620;2022-12-29T19:06:27;95520.59;;;-21.43;65.20
59829;BME280;45708;51.848;107.620;2022-12-29T19:11:28;95530.00;;;-21.58;64.84
59829;BME280;45708;51.848;107.620;2022-12-29T19:16:29;95531.66;;;-21.57;65.48
59829;BME280;45708;51.848;107.620;2022-12-29T19:21:29;95540.66;;;-21.43;65.75
59829;BME280;45708;51.848;107.620;2022-12-29T19:26:32;95533.00;;;-21.31;65.47
59829;BME280;45708;51.848;107.620;2022-12-29T19:31:34;95533.00;;;-21.31;65.11
59829;BME280;45708;51.848;107.620;2022-12-29T19:36:36;95544.59;;;-21.24;65.01
59829;BME280;45708;51.848;107.620;2022-12-29T19:41:37;95555.63;;;-21.36;65.00
59829;BME280;45708;51.848;107.620;2022-12-29T19:46:38;95531.38;;;-21.35;65.17
59829;BME280;45708;51.848;107.620;2022-12-29T19:51:39;95547.13;;;-21.26;65.21
59829;BME280;45708;51.848;107.620;2022-12-29T19:56:40;95544.59;;;-21.24;65.09
59829;BME280;45708;51.848;107.620;2022-12-29T20:01:41;95546.47;;;-21.38;65.26
59829;BME280;45708;51.848;107.620;2022-12-29T20:06:42;95539.84;;;-21.45;65.08
59829;BME280;45708;51.848;107.620;2022-12-29T20:11:43;95543.16;;;-21.43;65.30
59829;BME280;45708;51.848;107.620;2022-12-29T20:16:43;95536.66;;;-21.57;64.37
59829;BME280;45708;51.848;107.620;2022-12-29T20:21:44;95538.56;;;-21.77;65.14
59829;BME280;45708;51.848;107.620;2022-12-29T20:26:45;95536.97;;;-21.87;65.01
59829;BME280;45708;51.848;107.620;2022-12-29T20:31:47;95531.22;;;-21.94;65.58
59829;BME280;45708;51.848;107.620;2022-12-29T20:36:48;95534.47;;;-21.85;65.40
59829;BME280;45708;51.848;107.620;2022-12-29T20:41:49;95536.88;;;-21.75;65.53
59829;BME280;45708;51.848;107.620;2022-12-29T20:46:50;95534.19;;;-21.63;65.35
59829;BME280;45708;51.848;107.620;2022-12-29T20:51:51;95533.41;;;-21.65;65.18
59829;BME280;45708;51.848;107.620;2022-12-29T20:56:52;95534.91;;;-21.51;65.35
59829;BME280;45708;51.848;107.620;2022-12-29T21:01:53;95539.00;;;-21.44;65.29
59829;BME280;45708;51.848;107.620;2022-12-29T21:06:54;95532.28;;;-21.39;65.19
59829;BME280;45708;51.848;107.620;2022-12-29T21:11:55;95543.91;;;-21.34;65.32
59829;BME280;45708;51.848;107.620;2022-12-29T21:16:55;95527.97;;;-21.31;65.09
59829;BME280;45708;51.848;107.620;2022-12-29T21:21:56;95539.78;;;-21.38;65.28
59829;BME280;45708;51.848;107.620;2022-12-29T21:26:57;95518.22;;;-21.52;65.61
59829;BME280;45708;51.848;107.620;2022-12-29T21:31:58;95534.72;;;-21.35;65.75
59829;BME280;45708;51.848;107.620;2022-12-29T21:36:59;95533.78;;;-21.28;65.59
59829;BME280;45708;51.848;107.620;2022-12-29T21:41:59;95562.88;;;-21.16;65.38
59829;BME280;45708;51.848;107.620;2022-12-29T21:47:00;95544.78;;;-21.36;65.47
59829;BME280;45708;51.848;107.620;2022-12-29T21:52:01;95558.13;;;-21.34;65.67
59829;BME280;45708;51.848;107.620;2022-12-29T21:57:02;95568.88;;;-21.26;65.46
59829;BME280;45708;51.848;107.620;2022-12-29T22:02:09;95564.88;;;-21.42;65.44
59829;BME280;45708;51.848;107.620;2022-12-29T22:07:12;95566.63;;;-21.47;65.53
59829;BME280;45708;51.848;107.620;2022-12-29T22:12:13;95548.28;;;-21.51;65.42
59829;BME280;45708;51.848;107.620;2022-12-29T22:17:14;95557.59;;;-21.62;65.59
59829;BME280;45708;51.848;107.620;2022-12-29T22:22:15;95565.16;;;-21.67;66.07
59829;BME280;45708;51.848;107.620;2022-12-29T22:27:16;95576.03;;;-21.66;66.06
59829;BME280;45708;51.848;107.620;2022-12-29T22:32:17;95567.72;;;-21.70;65.88
59829;BME280;45708;51.848;107.620;2022-12-29T22:37:18;95578.63;;;-21.74;66.06
59829;BME280;45708;51.848;107.620;2022-12-29T22:42:19;95568.69;;;-21.83;65.99
59829;BME280;45708;51.848;107.620;2022-12-29T22:47:20;95589.56;;;-21.79;65.75
59829;BME280;45708;51.848;107.620;2022-12-29T22:52:21;95600.47;;;-21.88;66.19
59829;BME280;45708;51.848;107.620;2022-12-29T22:57:22;95590.50;;;-21.91;66.16
59829;BME280;45708;51.848;107.620;2022-12-29T23:02:23;95597.97;;;-21.88;66.00
59829;BME280;45708;51.848;107.620;2022-12-29T23:07:24;95598.84;;;-21.92;65.99
59829;BME280;45708;51.848;107.620;2022-12-29T23:12:27;95590.59;;;-22.03;66.42
59829;BME280;45708;51.848;107.620;2022-12-29T23:17:28;95594.03;;;-22.10;66.50
59829;BME280;45708;51.848;107.620;2022-12-29T23:22:28;95600.75;;;-22.12;66.71
59829;BME280;45708;51.848;107.620;2022-12-29T23:27:29;95594.09;;;-22.16;66.41
59829;BME280;45708;51.848;107.620;2022-12-29T23:32:30;95607.47;;;-22.17;66.22
59829;BME280;45708;51.848;107.620;2022-12-29T23:37:31;95620.03;;;-22.21;66.96
59829;BME280;45708;51.848;107.620;2022-12-29T23:42:32;95599.94;;;-22.16;66.43
59829;BME280;45708;51.848;107.620;2022-12-29T23:47:35;95629.06;;;-22.07;66.49
59829;BME280;45708;51.848;107.620;2022-12-29T23:52:36;95630.69;;;-22.03;66.48
59829;BME280;45708;51.848;107.620;2022-12-29T23:57:37;95632.47;;;-22.11;66.78
